Аэропорт
Междунаро́дный аэропо́рт Суна́н (ZKPY)

 ZKPY / FNJ

Korea, Democratic People's Republic of
KP-PYO
Сунан
 39.22410, 125.67000  / 117 ft

 TAF ZKPY 200420Z 2006/2106 20004MPS 6000 NSC TX08/2006Z TNM03/2022Z BECMG 2023/2101 17004MPS BKN033 BECMG 2104/2106 3000 -RA OVC020

2020 © VATRUS division (Privacy Policy)